Time;durP1;ratioP1;P1;durP2;ratioP2;P2;SDS_P1;SDS_P2;PMS_P1;PMS_P2;Temp;Humidity;BMP_temperature;BMP_pressure;BME280_temperature;BME280_humidity;BME280_pressure;Samples;Min_cycle;Max_cycle;Signal;HPM_P1;HPM_P2
2022/01/22 00:01:29;;;;;;;1.50;1.00;;;6.00;1.00;;;;;;5019275;28;20557;-75
2022/01/22 00:03:57;;;;;;;1.87;1.23;;;6.00;1.00;;;;;;5015237;28;20484;-75
2022/01/22 00:06:25;;;;;;;1.23;1.00;;;5.90;1.00;;;;;;5015023;28;20818;-73
2022/01/22 00:08:53;;;;;;;1.60;1.50;;;5.90;1.00;;;;;;5014838;28;20534;-74
2022/01/22 00:11:20;;;;;;;1.23;0.93;;;5.90;1.00;;;;;;5013408;28;20477;-74
2022/01/22 00:16:35;;;;;;;3.43;1.47;;;5.90;1.00;;;;;;5014973;28;20445;-75
2022/01/22 00:19:08;;;;;;;0.87;0.73;;;5.90;1.00;;;;;;5014165;28;20534;-74
2022/01/22 00:21:36;;;;;;;0.90;0.70;;;5.90;1.00;;;;;;5014019;28;20519;-74
2022/01/22 00:24:06;;;;;;;2.47;1.60;;;5.90;1.00;;;;;;5013935;28;20932;-73
2022/01/22 00:26:34;;;;;;;1.60;1.40;;;5.90;1.00;;;;;;5013857;28;20455;-72
2022/01/22 00:29:02;;;;;;;0.60;0.40;;;6.00;1.00;;;;;;5013916;28;20445;-74
2022/01/22 00:31:30;;;;;;;1.47;0.73;;;6.00;1.00;;;;;;5013484;28;20568;-74
2022/01/22 00:33:59;;;;;;;2.57;2.20;;;6.00;1.00;;;;;;5014952;28;20997;-74
2022/01/22 00:36:27;;;;;;;0.50;0.20;;;7.20;1.00;;;;;;5022894;28;20449;-74
2022/01/22 00:38:55;;;;;;;2.70;1.37;;;6.00;1.00;;;;;;5017735;28;21003;-74
2022/01/22 00:41:23;;;;;;;0.60;0.20;;;6.00;1.00;;;;;;5021431;28;20473;-74
2022/01/22 00:43:50;;;;;;;0.73;0.53;;;6.00;1.00;;;;;;5023258;28;20456;-74
2022/01/22 00:46:18;;;;;;;0.50;0.10;;;6.10;1.00;;;;;;5015913;28;20464;-74
2022/01/22 00:48:46;;;;;;;0.60;0.30;;;6.10;1.00;;;;;;5014062;28;20446;-74
2022/01/22 00:51:16;;;;;;;0.90;0.77;;;6.10;1.00;;;;;;5014057;28;20470;-73
2022/01/22 00:53:44;;;;;;;1.67;0.90;;;6.10;1.00;;;;;;5014198;28;20525;-73
2022/01/22 00:56:13;;;;;;;4.77;1.43;;;6.10;1.00;;;;;;5013577;28;20447;-73
2022/01/22 00:58:41;;;;;;;1.43;1.13;;;6.10;1.00;;;;;;5013741;28;20508;-74
2022/01/22 01:01:09;;;;;;;0.53;0.30;;;6.10;1.00;;;;;;5013266;28;20473;-73
2022/01/22 01:03:37;;;;;;;2.33;2.13;;;6.00;1.00;;;;;;5013389;28;20460;-74
2022/01/22 01:06:06;;;;;;;2.63;1.17;;;6.00;1.00;;;;;;5013359;28;20541;-73
2022/01/22 01:08:36;;;;;;;0.50;0.10;;;5.90;1.00;;;;;;5013611;28;20576;-73
2022/01/22 01:11:05;;;;;;;1.63;1.53;;;5.90;1.00;;;;;;5013515;28;20462;-74
2022/01/22 01:13:40;;;;;;;2.00;1.57;;;6.00;1.00;;;;;;5013699;28;20547;-73
2022/01/22 01:16:18;;;;;;;0.50;0.10;;;6.00;1.00;;;;;;5013257;28;20950;-74
2022/01/22 01:32:46;;;;;;;0.70;0.40;;;5.90;1.00;;;;;;5013748;28;21021;-74
2022/01/22 01:35:14;;;;;;;0.50;0.10;;;5.90;1.00;;;;;;5013349;28;20497;-74
2022/01/22 01:37:41;;;;;;;1.20;0.60;;;5.80;1.00;;;;;;5012752;28;20990;-75
2022/01/22 01:40:14;;;;;;;1.50;1.10;;;5.90;1.00;;;;;;5011426;28;20491;-72
2022/01/22 01:42:48;;;;;;;1.03;0.37;;;5.80;1.00;;;;;;5013115;28;20475;-73
2022/01/22 01:45:16;;;;;;;0.60;0.20;;;5.80;1.00;;;;;;5012509;28;20453;-74
2022/01/22 01:47:47;;;;;;;0.93;0.83;;;5.80;1.00;;;;;;5013229;28;20430;-74
2022/01/22 01:50:15;;;;;;;0.80;0.60;;;5.80;1.00;;;;;;5014006;28;20469;-75
2022/01/22 01:52:47;;;;;;;0.67;0.50;;;5.80;1.00;;;;;;5018174;28;20465;-73
2022/01/22 01:55:20;;;;;;;2.50;0.43;;;5.80;1.00;;;;;;5023630;28;20450;-74
2022/01/22 01:57:47;;;;;;;0.50;0.10;;;5.80;1.00;;;;;;5018780;28;20473;-73
2022/01/22 02:00:18;;;;;;;0.90;0.43;;;5.80;1.00;;;;;;5015136;28;20493;-74
2022/01/22 02:02:48;;;;;;;0.60;0.50;;;5.80;1.00;;;;;;5013252;28;20473;-74
2022/01/22 02:05:17;;;;;;;0.60;0.30;;;5.80;1.00;;;;;;5013021;28;20454;-73
2022/01/22 02:07:45;;;;;;;4.20;1.73;;;5.80;1.00;;;;;;5012847;28;20448;-74
2022/01/22 02:10:19;;;;;;;3.47;1.30;;;5.70;1.00;;;;;;5018032;28;20724;-74
2022/01/22 02:23:54;;;;;;;0.50;0.20;;;5.60;1.00;;;;;;5013724;28;20440;-74
2022/01/22 02:26:22;;;;;;;1.80;1.70;;;5.60;1.00;;;;;;5013726;28;20981;-74
2022/01/22 02:28:52;;;;;;;1.67;0.57;;;5.70;1.00;;;;;;5014062;28;20444;-73
2022/01/22 02:31:27;;;;;;;1.83;0.83;;;5.70;1.00;;;;;;5015512;28;20480;-74
2022/01/22 02:34:04;;;;;;;0.50;0.30;;;5.70;1.00;;;;;;5021202;28;20802;-73
2022/01/22 02:36:38;;;;;;;1.03;0.93;;;5.60;1.00;;;;;;5013233;28;20455;-73
2022/01/22 02:39:11;;;;;;;0.50;0.20;;;5.60;1.00;;;;;;5012450;28;20476;-73
2022/01/22 02:41:44;;;;;;;0.80;0.67;;;5.60;1.00;;;;;;5012870;28;20456;-74
2022/01/22 02:44:15;;;;;;;1.63;1.20;;;5.60;1.00;;;;;;5017097;28;20536;-74
2022/01/22 02:46:45;;;;;;;3.53;1.70;;;5.60;1.00;;;;;;5012106;28;20459;-74
2022/01/22 02:49:13;;;;;;;0.90;0.73;;;5.60;1.00;;;;;;5012021;28;20445;-74
2022/01/22 02:51:42;;;;;;;8.23;1.33;;;5.60;1.00;;;;;;5014010;28;20475;-73
2022/01/22 02:54:10;;;;;;;0.50;0.10;;;5.60;1.00;;;;;;5016287;28;20528;-74
2022/01/22 02:56:38;;;;;;;0.50;0.10;;;5.60;1.00;;;;;;5020341;28;20950;-73
2022/01/22 02:59:06;;;;;;;0.50;0.20;;;5.60;1.00;;;;;;5015559;28;20480;-74
2022/01/22 03:01:34;;;;;;;1.60;0.93;;;5.70;1.00;;;;;;5015791;28;20484;-74
2022/01/22 03:04:02;;;;;;;0.70;0.50;;;5.70;1.00;;;;;;5015749;28;20564;-74
2022/01/22 03:06:30;;;;;;;0.60;0.30;;;5.70;1.00;;;;;;5015740;28;20446;-73
2022/01/22 03:09:00;;;;;;;0.50;0.20;;;5.70;1.00;;;;;;5015405;28;20457;-74
2022/01/22 03:11:30;;;;;;;2.70;1.13;;;5.70;1.00;;;;;;5016221;28;20468;-73
2022/01/22 03:14:42;;;;;;;0.50;0.20;;;5.70;1.00;;;;;;5015455;28;20443;-74
2022/01/22 03:17:24;;;;;;;0.87;0.60;;;5.60;1.00;;;;;;5015508;28;20940;-74
2022/01/22 03:20:03;;;;;;;0.50;0.10;;;5.20;1.00;;;;;;5015522;28;20484;-74
2022/01/22 03:22:41;;;;;;;0.87;0.60;;;5.70;1.00;;;;;;5015244;28;20456;-73
2022/01/22 03:27:56;;;;;;;1.07;1.00;;;5.70;1.00;;;;;;5015392;28;20452;-73
2022/01/22 03:30:24;;;;;;;0.50;0.10;;;5.70;1.00;;;;;;5015620;28;20432;-74
2022/01/22 03:32:55;;;;;;;0.97;0.97;;;5.70;1.00;;;;;;5035103;22;20548;-75
2022/01/22 03:35:27;;;;;;;0.50;0.10;;;5.70;1.00;;;;;;5002048;28;20457;-77
2022/01/22 03:37:58;;;;;;;0.67;0.40;;;5.70;1.00;;;;;;4995865;28;20457;-76
2022/01/22 03:40:29;;;;;;;1.60;1.50;;;5.70;1.00;;;;;;4993869;28;20482;-76
2022/01/22 03:42:57;;;;;;;0.50;0.23;;;5.70;1.00;;;;;;4995019;28;20463;-77
2022/01/22 03:45:25;;;;;;;5.13;0.73;;;5.70;1.00;;;;;;4995686;28;20452;-75
2022/01/22 03:47:53;;;;;;;0.50;0.10;;;5.80;1.00;;;;;;4995584;28;20446;-77
2022/01/22 03:50:22;;;;;;;1.30;0.57;;;5.80;1.00;;;;;;4994989;28;20820;-75
2022/01/22 03:52:49;;;;;;;0.50;0.20;;;5.80;1.00;;;;;;4994879;28;20479;-76
2022/01/22 03:55:30;;;;;;;0.50;0.10;;;5.80;1.00;;;;;;4995290;28;20443;-76
2022/01/22 03:58:01;;;;;;;0.60;0.30;;;5.90;1.00;;;;;;4995612;28;20442;-77
2022/01/22 04:00:29;;;;;;;0.50;0.10;;;5.80;1.00;;;;;;4994686;28;20486;-76
2022/01/22 04:03:28;;;;;;;0.50;0.10;;;5.80;1.00;;;;;;4993586;28;20503;-76
2022/01/22 04:06:18;;;;;;;0.60;0.30;;;5.80;1.00;;;;;;4994475;28;20462;-76
2022/01/22 04:08:45;;;;;;;0.50;0.10;;;5.80;1.00;;;;;;4994569;28;20496;-74
2022/01/22 04:11:15;;;;;;;0.60;0.40;;;5.90;1.00;;;;;;4994159;28;20546;-76
2022/01/22 04:13:47;;;;;;;0.50;0.13;;;5.90;1.00;;;;;;4994899;28;20454;-77
2022/01/22 04:16:15;;;;;;;1.20;0.60;;;5.90;1.00;;;;;;4987961;28;20443;-77
2022/01/22 04:27:08;;;;;;;0.50;0.10;;;5.80;1.00;;;;;;4975201;28;20957;-77
2022/01/22 04:29:37;;;;;;;0.50;0.10;;;5.80;1.00;;;;;;4974911;28;20844;-76
2022/01/22 04:32:06;;;;;;;1.10;0.50;;;5.80;1.00;;;;;;4974231;28;20479;-76
2022/01/22 04:34:34;;;;;;;1.97;1.10;;;5.80;1.00;;;;;;4991287;28;20466;-76
2022/01/22 04:37:02;;;;;;;0.50;0.10;;;5.70;1.00;;;;;;4994409;28;20450;-77
2022/01/22 04:39:30;;;;;;;0.50;0.37;;;5.70;1.00;;;;;;4994340;28;20439;-77
2022/01/22 04:41:58;;;;;;;1.00;0.40;;;5.70;1.00;;;;;;4994451;28;20470;-76
2022/01/22 04:44:30;;;;;;;0.50;0.10;;;5.70;1.00;;;;;;4996132;28;20474;-76
2022/01/22 04:47:13;;;;;;;0.97;0.40;;;5.70;1.00;;;;;;4990429;28;20538;-77
2022/01/22 04:52:36;;;;;;;0.80;0.40;;;5.70;1.00;;;;;;4974793;28;20477;-74
2022/01/22 04:55:05;;;;;;;0.97;0.87;;;5.70;1.00;;;;;;4974625;28;20836;-76
2022/01/22 04:57:34;;;;;;;0.50;0.20;;;5.70;1.00;;;;;;4974048;28;20451;-76
2022/01/22 05:00:05;;;;;;;0.97;0.60;;;5.70;1.00;;;;;;4974586;28;20487;-77
2022/01/22 05:02:34;;;;;;;0.50;0.10;;;5.70;1.00;;;;;;4990994;28;20477;-77
2022/01/22 05:05:02;;;;;;;0.50;0.20;;;5.70;1.00;;;;;;4993756;28;20449;-77
2022/01/22 05:07:30;;;;;;;0.50;0.20;;;5.70;1.00;;;;;;4998278;28;20457;-77
2022/01/22 05:09:58;;;;;;;0.50;0.10;;;5.70;1.00;;;;;;4993856;28;20451;-76
2022/01/22 05:12:26;;;;;;;0.50;0.23;;;5.80;1.00;;;;;;4993496;28;20475;-77
2022/01/22 05:14:54;;;;;;;0.60;0.30;;;5.80;1.00;;;;;;4989129;28;20495;-76
2022/01/22 05:17:22;;;;;;;0.60;0.60;;;5.90;1.00;;;;;;4973710;28;20461;-76
2022/01/22 05:19:56;;;;;;;0.60;0.53;;;5.90;1.00;;;;;;4973994;28;20452;-76
2022/01/22 05:22:41;;;;;;;0.50;0.20;;;5.90;1.00;;;;;;4973543;28;20901;-76
2022/01/22 05:25:17;;;;;;;0.80;0.50;;;5.80;1.00;;;;;;4973853;28;20463;-76
2022/01/22 05:28:29;;;;;;;0.50;0.10;;;5.80;1.00;;;;;;4973714;28;20942;-77
2022/01/22 05:31:05;;;;;;;1.53;0.97;;;5.70;1.00;;;;;;4992187;28;20442;-76
2022/01/22 05:39:05;;;;;;;0.50;0.20;;;5.70;1.00;;;;;;4992175;28;20879;-76
2022/01/22 05:41:34;;;;;;;0.50;0.10;;;;;;;;;;4993402;28;20513;-77
2022/01/22 05:44:01;;;;;;;0.50;0.10;;;5.70;1.00;;;;;;4994160;28;20462;-77
2022/01/22 05:46:30;;;;;;;0.60;0.30;;;5.90;1.00;;;;;;4994000;28;20439;-75
2022/01/22 05:48:58;;;;;;;0.50;0.10;;;5.90;1.00;;;;;;4994920;28;20465;-78
2022/01/22 05:51:27;;;;;;;0.50;0.10;;;6.00;1.00;;;;;;4993193;28;20500;-76
2022/01/22 05:54:19;;;;;;;0.50;0.20;;;6.10;1.00;;;;;;4993427;28;20446;-76
2022/01/22 05:59:39;;;;;;;0.50;0.10;;;6.00;1.00;;;;;;4994776;28;20468;-76
2022/01/22 06:02:08;;;;;;;0.50;0.30;;;6.00;1.00;;;;;;4997166;28;20518;-74
2022/01/22 06:04:36;;;;;;;0.50;0.10;;;6.00;1.00;;;;;;4996833;28;20447;-76
2022/01/22 06:07:06;;;;;;;0.50;0.20;;;6.00;1.00;;;;;;4992609;28;20464;-76
2022/01/22 06:09:38;;;;;;;1.27;1.17;;;6.00;1.00;;;;;;4992963;28;20469;-76
2022/01/22 06:12:16;;;;;;;0.50;0.20;;;6.00;1.00;;;;;;4992222;28;20553;-76
2022/01/22 06:14:44;;;;;;;0.60;0.37;;;6.00;1.00;;;;;;4992461;28;20442;-77
2022/01/22 06:17:12;;;;;;;0.50;0.10;;;6.00;1.00;;;;;;4973650;28;20461;-76
2022/01/22 06:19:40;;;;;;;0.50;0.10;;;6.00;1.00;;;;;;4973173;28;20447;-76
2022/01/22 06:22:09;;;;;;;0.63;0.50;;;6.00;1.00;;;;;;4976860;28;20490;-76
2022/01/22 06:24:37;;;;;;;0.60;0.40;;;6.00;1.00;;;;;;4973167;28;20452;-77
2022/01/22 06:27:05;;;;;;;0.60;0.37;;;6.00;1.00;;;;;;4972734;28;20548;-76
2022/01/22 06:29:33;;;;;;;0.60;0.30;;;6.00;1.00;;;;;;4977752;28;20453;-77
2022/01/22 06:32:01;;;;;;;0.60;0.40;;;6.00;1.00;;;;;;4994023;28;20892;-78
2022/01/22 06:34:29;;;;;;;0.53;0.27;;;6.00;1.00;;;;;;4994965;28;20442;-77
2022/01/22 06:36:57;;;;;;;0.50;0.10;;;6.00;1.00;;;;;;4993474;28;20448;-77
2022/01/22 06:39:27;;;;;;;0.90;0.60;;;6.00;1.00;;;;;;4993065;28;20445;-77
2022/01/22 06:41:53;;;;;;;0.50;0.10;;;6.00;1.00;;;;;;4994500;28;20489;-77
2022/01/22 06:44:24;;;;;;;0.50;0.10;;;6.00;1.00;;;;;;4981642;28;20467;-77
2022/01/22 06:46:55;;;;;;;0.50;0.10;;;6.00;1.00;;;;;;4973926;28;21101;-75
2022/01/22 06:49:23;;;;;;;0.60;0.30;;;;;;;;;;4974735;28;20455;-76
2022/01/22 06:51:54;;;;;;;0.50;0.10;;;6.10;1.00;;;;;;4974441;28;20472;-77
2022/01/22 06:54:22;;;;;;;1.53;1.43;;;6.10;1.00;;;;;;4972521;28;20586;-77
2022/01/22 06:56:51;;;;;;;0.60;0.20;;;6.10;1.00;;;;;;4973294;28;20565;-77
2022/01/22 06:59:19;;;;;;;0.50;0.10;;;6.00;1.00;;;;;;4991456;28;20509;-77
2022/01/22 07:01:48;;;;;;;1.13;1.00;;;6.00;1.00;;;;;;4992168;28;20489;-76
2022/01/22 07:04:17;;;;;;;3.37;1.70;;;5.90;1.00;;;;;;4992521;28;20443;-76
2022/01/22 07:06:45;;;;;;;0.50;0.10;;;5.90;1.00;;;;;;4993407;28;20461;-77
2022/01/22 07:09:13;;;;;;;3.37;1.10;;;5.90;1.00;;;;;;4993420;28;20446;-76
2022/01/22 07:11:41;;;;;;;0.60;0.50;;;5.90;1.00;;;;;;4989045;28;21020;-76
2022/01/22 07:14:16;;;;;;;0.50;0.10;;;5.90;1.00;;;;;;4979729;28;20545;-76
2022/01/22 07:16:44;;;;;;;0.60;0.30;;;5.90;1.00;;;;;;4992489;28;20806;-77
2022/01/22 07:19:17;;;;;;;0.50;0.20;;;5.90;1.00;;;;;;4994176;28;20456;-76
2022/01/22 07:21:51;;;;;;;0.50;0.10;;;5.90;1.00;;;;;;4993138;28;20570;-75
2022/01/22 07:24:26;;;;;;;0.60;0.40;;;6.00;1.00;;;;;;4993116;28;20508;-77
2022/01/22 07:26:54;;;;;;;0.50;0.10;;;6.00;1.00;;;;;;4994302;28;20460;-77
2022/01/22 07:29:24;;;;;;;2.47;0.93;;;6.00;1.00;;;;;;4973830;28;20455;-79
2022/01/22 07:31:52;;;;;;;2.00;0.67;;;6.00;1.00;;;;;;4972997;28;20491;-76
2022/01/22 07:34:20;;;;;;;0.50;0.10;;;6.10;1.00;;;;;;4973624;28;20535;-78
2022/01/22 07:36:48;;;;;;;0.60;0.47;;;6.10;1.00;;;;;;4974945;28;20471;-77
2022/01/22 07:39:16;;;;;;;0.50;0.10;;;6.20;1.00;;;;;;4978432;28;20448;-77
2022/01/22 07:41:44;;;;;;;0.50;0.20;;;6.20;1.00;;;;;;4978611;28;20486;-76
2022/01/22 07:44:11;;;;;;;0.90;0.63;;;6.20;1.00;;;;;;4997255;28;20946;-75
2022/01/22 07:46:41;;;;;;;0.60;0.57;;;;;;;;;;4996441;28;20449;-76
2022/01/22 07:49:10;;;;;;;2.03;1.70;;;6.10;1.00;;;;;;4996466;28;20447;-77
2022/01/22 07:51:37;;;;;;;0.50;0.10;;;6.10;1.00;;;;;;4996034;28;20857;-77
2022/01/22 07:54:05;;;;;;;2.13;1.03;;;6.20;1.00;;;;;;4992332;28;20461;-76
2022/01/22 07:56:33;;;;;;;0.60;0.33;;;6.20;1.00;;;;;;4976829;28;20460;-76
2022/01/22 07:59:01;;;;;;;1.40;1.03;;;6.20;1.00;;;;;;4977435;28;21009;-77
2022/01/22 08:01:29;;;;;;;0.60;0.47;;;6.20;1.00;;;;;;4977360;28;20473;-77
2022/01/22 08:04:00;;;;;;;0.50;0.10;;;;;;;;;;4976653;28;21022;-76
2022/01/22 08:06:28;;;;;;;1.17;0.50;;;6.20;1.00;;;;;;4977038;28;20522;-77
2022/01/22 08:08:55;;;;;;;0.70;0.50;;;6.10;1.00;;;;;;4986971;28;21060;-77
2022/01/22 08:11:23;;;;;;;0.93;0.20;;;6.10;1.00;;;;;;4997124;28;20465;-76
2022/01/22 08:13:51;;;;;;;1.17;1.07;;;6.00;1.00;;;;;;5003255;28;20455;-76
2022/01/22 08:16:19;;;;;;;0.50;0.30;;;6.10;1.00;;;;;;5004569;28;20447;-76
2022/01/22 08:18:47;;;;;;;0.50;0.20;;;6.10;1.00;;;;;;5003630;28;20442;-75
2022/01/22 08:21:16;;;;;;;1.33;0.70;;;6.10;1.00;;;;;;5002733;28;20446;-75
2022/01/22 08:23:44;;;;;;;0.50;0.10;;;6.10;1.00;;;;;;5003586;28;20492;-77
2022/01/22 08:26:17;;;;;;;0.50;0.10;;;6.10;1.00;;;;;;4986785;28;20458;-77
2022/01/22 08:28:58;;;;;;;0.50;0.10;;;6.10;1.00;;;;;;4983106;28;20447;-77
2022/01/22 08:31:40;;;;;;;0.60;0.20;;;6.30;1.00;;;;;;4983073;28;21045;-76
2022/01/22 08:37:00;;;;;;;0.50;0.20;;;6.20;1.00;;;;;;4944297;28;20535;-75
2022/01/22 08:39:28;;;;;;;1.90;1.03;;;6.20;1.00;;;;;;4985329;28;20439;-76
2022/01/22 08:41:56;;;;;;;1.00;0.90;;;6.10;1.00;;;;;;4994449;28;20568;-76
2022/01/22 08:44:25;;;;;;;0.90;0.30;;;6.10;1.00;;;;;;5001210;28;20456;-76
2022/01/22 08:46:53;;;;;;;1.23;0.63;;;6.10;1.00;;;;;;5004598;28;20446;-76
2022/01/22 08:49:21;;;;;;;0.50;0.10;;;6.20;1.00;;;;;;5003686;28;20479;-76
2022/01/22 08:51:49;;;;;;;0.50;0.10;;;6.20;1.00;;;;;;5001689;28;20464;-77
2022/01/22 08:54:18;;;;;;;0.50;0.10;;;6.30;1.00;;;;;;5002097;28;20447;-77
2022/01/22 08:56:46;;;;;;;1.47;1.37;;;6.30;1.00;;;;;;4992497;28;20467;-76
2022/01/22 08:59:14;;;;;;;0.50;0.10;;;6.40;1.00;;;;;;4985756;28;20468;-77
2022/01/22 09:01:44;;;;;;;0.50;0.10;;;6.40;1.00;;;;;;4984859;28;20473;-76
2022/01/22 09:04:12;;;;;;;1.13;0.57;;;6.40;1.00;;;;;;4982513;28;20460;-74
2022/01/22 09:06:40;;;;;;;0.60;0.30;;;6.30;1.00;;;;;;4988538;28;20443;-75
2022/01/22 09:09:10;;;;;;;0.50;0.10;;;6.30;1.00;;;;;;4988507;28;20474;-77
2022/01/22 09:11:43;;;;;;;0.50;0.20;;;6.40;1.00;;;;;;5005741;28;20464;-75
2022/01/22 09:14:13;;;;;;;0.50;0.10;;;6.40;1.00;;;;;;5002030;28;20855;-76
2022/01/22 09:16:42;;;;;;;0.50;0.30;;;6.30;1.00;;;;;;4999402;28;20545;-76
2022/01/22 09:19:12;;;;;;;0.70;0.70;;;6.40;1.00;;;;;;4997046;28;20481;-77
2022/01/22 09:21:42;;;;;;;1.03;0.93;;;6.40;1.00;;;;;;4996542;28;20470;-77
2022/01/22 09:24:11;;;;;;;0.50;0.10;;;6.40;1.00;;;;;;4993870;28;20479;-76
2022/01/22 09:26:41;;;;;;;1.07;0.77;;;;;;;;;;4986022;28;20502;-79
2022/01/22 09:29:09;;;;;;;0.50;0.20;;;6.40;1.00;;;;;;4988004;28;20451;-77
2022/01/22 09:31:37;;;;;;;0.50;0.10;;;6.40;1.00;;;;;;4995433;28;20481;-77
2022/01/22 09:34:05;;;;;;;0.50;0.10;;;6.50;1.00;;;;;;4996707;28;20449;-73
2022/01/22 09:36:34;;;;;;;0.50;0.30;;;6.50;1.00;;;;;;5031673;23;20497;-75
2022/01/22 09:39:02;;;;;;;0.90;0.20;;;6.50;1.00;;;;;;5037869;28;20826;-74
2022/01/22 09:41:30;;;;;;;1.30;0.70;;;6.50;1.00;;;;;;5025495;28;20940;-73
2022/01/22 09:44:20;;;;;;;0.50;0.20;;;6.50;1.00;;;;;;5034075;28;20465;-73
2022/01/22 09:46:48;;;;;;;1.07;1.07;;;6.40;1.00;;;;;;5038898;28;20462;-75
2022/01/22 09:49:16;;;;;;;1.77;1.10;;;6.40;1.00;;;;;;5052276;28;20460;-73
2022/01/22 09:51:44;;;;;;;0.50;0.10;;;6.40;1.00;;;;;;5045533;28;20470;-73
2022/01/22 09:54:13;;;;;;;0.50;0.10;;;6.40;1.00;;;;;;5031873;28;21015;-73
2022/01/22 09:56:44;;;;;;;0.70;0.67;;;6.50;1.00;;;;;;5031867;28;20472;-73
2022/01/22 09:59:14;;;;;;;0.50;0.30;;;6.50;1.00;;;;;;5031691;28;20440;-75
2022/01/22 10:01:43;;;;;;;3.23;1.40;;;6.50;1.00;;;;;;5031732;28;20503;-75
2022/01/22 10:04:11;;;;;;;0.50;0.10;;;6.60;1.00;;;;;;5041214;28;20575;-72
2022/01/22 10:06:49;;;;;;;5.33;4.93;;;6.60;1.00;;;;;;5021016;28;20477;-73
2022/01/22 10:09:26;;;;;;;3.83;1.57;;;6.70;1.00;;;;;;5040421;28;20529;-74
2022/01/22 10:12:12;;;;;;;0.50;0.20;;;6.60;1.00;;;;;;5054029;28;20479;-76
2022/01/22 10:15:05;;;;;;;1.93;1.70;;;6.70;1.00;;;;;;5056271;28;20436;-76
2022/01/22 10:17:46;;;;;;;1.87;0.67;;;6.60;1.00;;;;;;5065834;28;20463;-75
2022/01/22 10:20:32;;;;;;;0.50;0.10;;;6.60;1.00;;;;;;5054699;28;20475;-74
2022/01/22 10:23:02;;;;;;;1.53;0.83;;;6.70;1.00;;;;;;5034384;28;20484;-74
2022/01/22 10:25:35;;;;;;;2.57;0.83;;;6.80;1.00;;;;;;5033035;28;20511;-75
2022/01/22 10:28:05;;;;;;;0.67;0.60;;;6.80;1.00;;;;;;5031297;28;20554;-73
2022/01/22 10:30:37;;;;;;;0.50;0.10;;;6.80;1.00;;;;;;5031863;28;20451;-74
2022/01/22 10:33:26;;;;;;;0.50;0.10;;;6.80;1.00;;;;;;5031616;28;20878;-75
2022/01/22 10:35:55;;;;;;;0.50;0.10;;;6.90;1.00;;;;;;5020715;28;20442;-74
2022/01/22 10:38:23;;;;;;;2.00;0.87;;;7.00;1.00;;;;;;5018615;28;20478;-74
2022/01/22 10:40:57;;;;;;;0.50;0.10;;;7.00;1.00;;;;;;5017023;28;20456;-74
2022/01/22 10:43:30;;;;;;;0.50;0.20;;;7.10;1.00;;;;;;5013226;28;20490;-77
2022/01/22 10:46:04;;;;;;;0.50;0.10;;;7.10;1.00;;;;;;5037978;28;20473;-75
2022/01/22 10:48:35;;;;;;;0.50;0.10;;;7.10;1.00;;;;;;5031947;28;20446;-75
2022/01/22 10:51:08;;;;;;;0.50;0.10;;;7.10;1.00;;;;;;5030808;28;20546;-74
2022/01/22 10:53:43;;;;;;;0.50;0.10;;;7.20;1.00;;;;;;5024491;28;20445;-74
2022/01/22 10:56:13;;;;;;;0.50;0.20;;;7.30;1.00;;;;;;5024802;28;20826;-75
2022/01/22 10:59:00;;;;;;;1.23;0.83;;;7.30;1.00;;;;;;5027161;28;20442;-75
2022/01/22 11:01:31;;;;;;;0.97;0.67;;;7.20;1.00;;;;;;5022718;28;20464;-74
2022/01/22 11:04:10;;;;;;;0.50;0.10;;;7.20;1.00;;;;;;5025293;28;21086;-74
2022/01/22 11:06:40;;;;;;;0.50;0.10;;;7.10;1.00;;;;;;5031446;28;20474;-74
2022/01/22 11:09:08;;;;;;;0.50;0.10;;;7.10;1.00;;;;;;5019588;28;20883;-75
2022/01/22 11:11:40;;;;;;;0.50;0.10;;;7.10;1.00;;;;;;5022065;28;20473;-73
2022/01/22 11:14:11;;;;;;;0.50;0.10;;;7.30;1.00;;;;;;5016289;28;20443;-75
2022/01/22 11:16:40;;;;;;;0.50;0.10;;;7.30;1.00;;;;;;5031487;28;20472;-75
2022/01/22 11:19:18;;;;;;;0.50;0.10;;;7.40;1.00;;;;;;5030053;28;20442;-73
2022/01/22 11:21:49;;;;;;;0.50;0.10;;;7.40;1.00;;;;;;5034397;28;20442;-76
2022/01/22 11:24:20;;;;;;;0.50;0.10;;;7.40;1.00;;;;;;5028521;28;20481;-75
2022/01/22 11:26:51;;;;;;;0.50;0.10;;;7.50;1.00;;;;;;5021896;28;20469;-75
2022/01/22 11:29:22;;;;;;;0.50;0.10;;;7.50;1.00;;;;;;5033214;28;20453;-75
2022/01/22 11:31:53;;;;;;;0.50;0.10;;;7.50;1.00;;;;;;5038471;28;20548;-75
2022/01/22 11:34:25;;;;;;;0.50;0.20;;;7.60;1.00;;;;;;5040842;28;20449;-74
2022/01/22 11:36:59;;;;;;;2.93;2.63;;;7.60;1.00;;;;;;5030825;28;20473;-75
2022/01/22 11:39:28;;;;;;;0.50;0.10;;;7.70;1.00;;;;;;5025820;28;20438;-74
2022/01/22 11:42:00;;;;;;;0.50;0.10;;;7.70;1.00;;;;;;5032154;28;20766;-73
2022/01/22 11:44:40;;;;;;;0.50;0.10;;;7.70;1.00;;;;;;5027050;28;20486;-76
2022/01/22 11:47:11;;;;;;;0.50;0.10;;;7.70;1.00;;;;;;5021946;28;20486;-73
2022/01/22 11:49:41;;;;;;;0.50;0.10;;;7.70;1.00;;;;;;5023390;28;20466;-72
2022/01/22 11:52:23;;;;;;;0.50;0.10;;;7.80;1.00;;;;;;5030879;28;20442;-74
2022/01/22 11:54:54;;;;;;;0.50;0.10;;;7.80;1.00;;;;;;5021279;28;20964;-72
2022/01/22 11:57:23;;;;;;;0.50;0.10;;;7.80;1.00;;;;;;5044469;28;20610;-71
2022/01/22 12:00:19;;;;;;;0.60;0.27;;;7.80;1.00;;;;;;5051197;28;20466;-72
2022/01/22 12:03:21;;;;;;;1.13;1.03;;;8.00;1.00;;;;;;5019364;28;20449;-74
2022/01/22 12:06:10;;;;;;;0.50;0.10;;;8.00;1.00;;;;;;5020670;28;20951;-76
2022/01/22 12:09:04;;;;;;;0.70;0.40;;;8.00;1.00;;;;;;5032679;28;20444;-74
2022/01/22 12:14:54;;;;;;;0.50;0.20;;;8.00;1.00;;;;;;5030497;28;20435;-72
2022/01/22 12:17:58;;;;;;;0.50;0.10;;;8.00;1.00;;;;;;5023886;28;20477;-73
2022/01/22 12:21:30;;;;;;;0.60;0.43;;;8.00;1.00;;;;;;5018461;28;20943;-73
2022/01/22 12:23:49;;;;;;;0.50;0.20;;;7.90;1.00;;;;;;5023571;28;20496;-74
2022/01/22 12:26:36;;;;;;;1.50;1.40;;;7.80;1.00;;;;;;5017834;28;20457;-73
2022/01/22 12:29:37;;;;;;;0.50;0.10;;;7.80;1.00;;;;;;5024422;28;20450;-74
2022/01/22 12:32:08;;;;;;;1.63;1.50;;;7.80;1.00;;;;;;5016853;28;20576;-75
2022/01/22 12:35:05;;;;;;;2.03;1.90;;;7.80;1.00;;;;;;5030764;28;20558;-76
2022/01/22 12:37:39;;;;;;;0.50;0.10;;;7.80;1.00;;;;;;5024279;28;20475;-72
2022/01/22 12:40:10;;;;;;;0.50;0.10;;;7.70;1.00;;;;;;5019614;28;20522;-72
2022/01/22 12:43:02;;;;;;;0.60;0.33;;;7.70;1.00;;;;;;5031008;28;20789;-73
2022/01/22 12:45:30;;;;;;;0.63;0.30;;;7.70;1.00;;;;;;5034574;28;20850;-72
2022/01/22 12:47:58;;;;;;;23.03;1.17;;;7.70;1.00;;;;;;5049732;28;20475;-74
2022/01/22 12:50:30;;;;;;;0.50;0.10;;;7.60;1.00;;;;;;5052183;28;20935;-74
2022/01/22 12:53:04;;;;;;;1.37;0.90;;;7.70;1.00;;;;;;5048710;28;20447;-74
2022/01/22 12:56:13;;;;;;;0.50;0.10;;;7.70;1.00;;;;;;5050612;28;20462;-73
2022/01/22 12:58:42;;;;;;;0.50;0.17;;;7.70;1.00;;;;;;5045104;28;20452;-73
2022/01/22 13:01:18;;;;;;;0.50;0.20;;;7.80;1.00;;;;;;5042489;28;20582;-74
2022/01/22 13:03:49;;;;;;;0.60;0.33;;;7.80;1.00;;;;;;5042412;28;20466;-72
2022/01/22 13:06:17;;;;;;;0.50;0.20;;;7.90;1.00;;;;;;5042550;28;20441;-73
2022/01/22 13:08:46;;;;;;;0.50;0.20;;;7.90;1.00;;;;;;5012792;28;20435;-74
2022/01/22 13:11:18;;;;;;;0.50;0.10;;;7.90;1.00;;;;;;5012323;28;20493;-73
2022/01/22 13:13:51;;;;;;;2.20;0.80;;;7.80;1.00;;;;;;5024798;28;20450;-72
2022/01/22 13:16:19;;;;;;;0.50;0.10;;;7.80;1.00;;;;;;5018454;28;20880;-73
2022/01/22 13:18:56;;;;;;;0.57;0.33;;;7.80;1.00;;;;;;5039461;28;20958;-75
2022/01/22 13:21:27;;;;;;;0.50;0.10;;;7.80;1.00;;;;;;5044897;28;20926;-71
2022/01/22 13:24:02;;;;;;;0.50;0.10;;;7.90;1.00;;;;;;5017329;28;20494;-73
2022/01/22 13:26:47;;;;;;;0.50;0.10;;;7.90;1.00;;;;;;5029434;28;20459;-73
2022/01/22 13:29:20;;;;;;;1.80;1.70;;;7.80;1.00;;;;;;5020344;28;20888;-73
2022/01/22 13:32:14;;;;;;;0.50;0.20;;;7.80;1.00;;;;;;5021449;28;20801;-74
2022/01/22 13:35:09;;;;;;;0.60;0.40;;;7.80;1.00;;;;;;5018285;28;20453;-72
2022/01/22 13:40:48;;;;;;;0.50;0.10;;;7.90;1.00;;;;;;5025157;28;20454;-73
2022/01/22 13:48:57;;;;;;;0.80;0.40;;;8.00;1.00;;;;;;5029246;28;20469;-73
2022/01/22 13:51:26;;;;;;;0.60;0.37;;;8.00;1.00;;;;;;5032569;28;20464;-72
2022/01/22 13:53:54;;;;;;;0.50;0.10;;;8.00;1.00;;;;;;5022477;28;20442;-72
2022/01/22 13:56:43;;;;;;;0.80;0.43;;;7.90;1.00;;;;;;5030296;28;20480;-73
2022/01/22 13:59:16;;;;;;;1.13;1.03;;;8.00;1.00;;;;;;5043519;28;20481;-72
2022/01/22 14:01:51;;;;;;;0.63;0.30;;;7.90;1.00;;;;;;5039539;28;20480;-74
2022/01/22 14:04:21;;;;;;;0.50;0.10;;;7.90;1.00;;;;;;5035158;28;20820;-73
2022/01/22 14:06:49;;;;;;;0.50;0.10;;;8.00;1.00;;;;;;5049977;28;20888;-74
2022/01/22 14:09:18;;;;;;;0.50;0.10;;;8.00;1.00;;;;;;5035252;28;20462;-73
2022/01/22 14:12:11;;;;;;;0.50;0.10;;;8.00;1.00;;;;;;5016027;28;20458;-73
2022/01/22 14:14:56;;;;;;;0.50;0.10;;;8.10;1.00;;;;;;5024421;28;20448;-73
2022/01/22 14:17:28;;;;;;;0.50;0.10;;;8.10;1.00;;;;;;5030618;28;20465;-74
2022/01/22 14:20:06;;;;;;;0.50;0.10;;;8.20;1.00;;;;;;5025566;28;20458;-74
2022/01/22 14:23:01;;;;;;;0.50;0.10;;;8.20;1.00;;;;;;5029800;28;20454;-74
2022/01/22 14:25:29;;;;;;;0.60;0.40;;;8.30;1.00;;;;;;5028907;28;20474;-73
2022/01/22 14:28:01;;;;;;;0.50;0.20;;;8.20;1.00;;;;;;5027330;28;20466;-72
2022/01/22 14:30:34;;;;;;;0.60;0.33;;;8.20;1.00;;;;;;5019178;28;20448;-73
2022/01/22 14:33:03;;;;;;;0.50;0.10;;;8.10;1.00;;;;;;5029651;28;20460;-73
2022/01/22 14:35:31;;;;;;;0.50;0.10;;;8.10;1.00;;;;;;5023142;28;20455;-73
2022/01/22 14:38:20;;;;;;;0.50;0.10;;;8.10;1.00;;;;;;5015559;28;20472;-74
2022/01/22 14:44:10;;;;;;;0.60;0.33;;;8.10;1.00;;;;;;5019381;28;20448;-74
2022/01/22 14:46:52;;;;;;;0.50;0.10;;;8.10;1.00;;;;;;5025498;28;20988;-75